Cascade, MT

11:40 PM MDT on August 29, 2014 (GMT -0600)
Great Falls International | Change Station
CLOSE
Current Station
Airport
Location: Great Falls,
Elevation: 3658 ft
Nearby Weather Stations

Elev 3658 ft 47.47 °N, 111.38 °W | Updated 47 minutes ago

Clear
Clear
61 °F
Feels Like 61 °F
N
10
Wind Variable Wind from SSW

Today
High -- | Low -- °F
--% Chance of Precip.
Yesterday
High -- | Low -- °F
Precip. -- in
6:42 AM 8:12 PM
Waxing Crescent, 19% visible
Pressure 29.73 in
Visibility 10.0 miles
Clouds Clear
Dew Point 44 °F
Humidity 54%
Rainfall 0.00 in
Snow Depth Not available.
UV 0 out of 12
Pollen 7.80 out of 12
Air Quality Not available.
Flu Activity Not available.
METAR KGTF 300453Z 21009KT 10SM CLR 16/07 A2979 RMK AO2 SLP068 T01610067 $

More Conditions Fewer Conditions

Pressure 29.73 in
Visibility 10.0 miles
Clouds Clear
Dew Point 44 °F
Humidity 54%
Rainfall 0.00 in
Snow Depth Not available.
UV 0 out of 12
Pollen 7.80 out of 12
Air Quality Not available.
Flu Activity Not available.
METAR KGTF 300453Z 21009KT 10SM CLR 16/07 A2979 RMK AO2 SLP068 T01610067 $

More Conditions Fewer Conditions

10-Day Weather Forecast

Almanac

Astronomy

Aug. 29, 2014 Rise Set
Actual Time 6:42 AM MDT 8:12 PM MDT
Civil Twilight 6:10 AM MDT 8:44 PM MDT
Nautical Twilight 5:31 AM MDT 9:22 PM MDT
Astronomical Twilight 4:49 AM MDT 10:04 PM MDT
Moon 10:53 AM MDT (8/29) 9:52 PM MDT (8/29)
Length of Visible Light 14h 34m
Length of Day
13h 30m
Tomorrow will be 3m 15s shorter.
Waxing Crescent, 19% of the Moon is Illuminated
Aug 30
Waxing Crescent
Sep 2
First Quarter
Sep 8
Full
Sep 15
Last Quarter
Sep 24
New

Yesterday's Extremes

State Highs State Lows

Community

WunderPhotos

Upload Photos

1,748,467 photos uploaded!

Nearby

Snow Depth

Station Depth Elevation
Stringer Creek 0 in 6550 ft
Copper Bottom 0 in 5200 ft
Onion Park 0 in 7410 ft
Nevada Ridge 1 in 7020 ft
Pickfoot Creek 0 in 6650 ft

Earthquake Activity

City Distance Mag. Time & Date
No recent earthquake activity has been reported nearby.
Minimum magnitude displayed is 2.5.

Coastal Water Temperatures

Place Temperature
No Stations Reporting

Nearby Weather Stations